sensor_id;sensor_type;location;lat;lon;timestamp;pressure;altitude;pressure_sealevel;temperature;humidity
55757;BME280;41676;44.610;44.078;2023-04-23T00:04:14;100334.50;;;12.29;91.73
55757;BME280;41676;44.610;44.078;2023-04-23T00:09:18;100409.44;;;12.64;91.64
55757;BME280;41676;44.610;44.078;2023-04-23T00:14:20;100411.19;;;12.57;91.65
55757;BME280;41676;44.610;44.078;2023-04-23T00:19:21;100416.94;;;12.46;91.87
55757;BME280;41676;44.610;44.078;2023-04-23T00:24:22;100357.75;;;12.13;91.46
55757;BME280;41676;44.610;44.078;2023-04-23T00:29:22;100431.13;;;12.61;91.71
55757;BME280;41676;44.610;44.078;2023-04-23T00:34:23;100327.16;;;12.08;91.04
55757;BME280;41676;44.610;44.078;2023-04-23T00:39:24;100426.41;;;12.71;91.09
55757;BME280;41676;44.610;44.078;2023-04-23T00:44:25;100436.19;;;12.71;90.92
55757;BME280;41676;44.610;44.078;2023-04-23T00:49:26;100310.69;;;11.82;90.97
55757;BME280;41676;44.610;44.078;2023-04-23T00:54:27;100438.31;;;12.61;90.43
55757;BME280;41676;44.610;44.078;2023-04-23T00:59:29;100425.94;;;12.45;89.67
55757;BME280;41676;44.610;44.078;2023-04-23T01:04:31;100442.19;;;12.50;89.59
55757;BME280;41676;44.610;44.078;2023-04-23T01:09:32;100443.56;;;12.46;89.15
55757;BME280;41676;44.610;44.078;2023-04-23T01:14:33;100382.22;;;12.08;89.07
55757;BME280;41676;44.610;44.078;2023-04-23T01:19:34;100450.91;;;12.44;88.28
55757;BME280;41676;44.610;44.078;2023-04-23T01:24:36;100444.53;;;12.30;88.07
55757;BME280;41676;44.610;44.078;2023-04-23T01:29:38;100439.75;;;12.17;88.13
55757;BME280;41676;44.610;44.078;2023-04-23T01:34:40;100456.72;;;12.24;88.00
55757;BME280;41676;44.610;44.078;2023-04-23T01:39:41;100470.06;;;12.16;88.19
55757;BME280;41676;44.610;44.078;2023-04-23T01:44:41;100439.88;;;12.01;87.52
55757;BME280;41676;44.610;44.078;2023-04-23T01:49:42;100387.59;;;11.69;87.60
55757;BME280;41676;44.610;44.078;2023-04-23T01:54:43;100443.97;;;12.12;87.37
55757;BME280;41676;44.610;44.078;2023-04-23T01:59:44;100457.06;;;12.21;87.23
55757;BME280;41676;44.610;44.078;2023-04-23T02:04:46;100467.38;;;12.24;86.71
55757;BME280;41676;44.610;44.078;2023-04-23T02:09:48;100333.75;;;11.27;86.74
55757;BME280;41676;44.610;44.078;2023-04-23T02:14:48;100489.28;;;12.03;87.50
55757;BME280;41676;44.610;44.078;2023-04-23T02:19:50;100479.81;;;11.84;87.83
55757;BME280;41676;44.610;44.078;2023-04-23T02:24:52;100511.09;;;11.99;88.03
55757;BME280;41676;44.610;44.078;2023-04-23T02:29:53;100487.81;;;11.93;87.31
55757;BME280;41676;44.610;44.078;2023-04-23T02:34:54;100456.47;;;11.63;86.99
55757;BME280;41676;44.610;44.078;2023-04-23T02:39:54;100489.19;;;11.80;86.53
55757;BME280;41676;44.610;44.078;2023-04-23T02:44:55;100427.41;;;11.54;86.09
55757;BME280;41676;44.610;44.078;2023-04-23T02:49:56;100443.16;;;11.63;85.49
55757;BME280;41676;44.610;44.078;2023-04-23T02:54:59;100515.72;;;12.05;84.75
55757;BME280;41676;44.610;44.078;2023-04-23T03:00:02;100511.06;;;12.07;84.08
55757;BME280;41676;44.610;44.078;2023-04-23T03:05:06;100475.53;;;11.92;84.30
55757;BME280;41676;44.610;44.078;2023-04-23T03:10:07;100432.34;;;11.73;84.01
55757;BME280;41676;44.610;44.078;2023-04-23T03:15:09;100542.63;;;12.49;83.23
55757;BME280;41676;44.610;44.078;2023-04-23T03:20:11;100440.53;;;12.03;82.25
55757;BME280;41676;44.610;44.078;2023-04-23T03:25:12;100530.63;;;12.76;81.52
55757;BME280;41676;44.610;44.078;2023-04-23T03:30:12;100516.78;;;12.81;80.90
55757;BME280;41676;44.610;44.078;2023-04-23T03:35:13;100541.41;;;13.06;79.64
55757;BME280;41676;44.610;44.078;2023-04-23T03:40:14;100539.25;;;13.24;78.13
55757;BME280;41676;44.610;44.078;2023-04-23T03:45:15;100523.03;;;13.11;77.23
55757;BME280;41676;44.610;44.078;2023-04-23T03:50:16;100562.09;;;13.27;75.82
55757;BME280;41676;44.610;44.078;2023-04-23T03:55:17;100580.25;;;13.32;75.58
55757;BME280;41676;44.610;44.078;2023-04-23T04:00:18;100577.97;;;13.20;75.48
55757;BME280;41676;44.610;44.078;2023-04-23T04:05:18;100594.31;;;13.26;75.65
55757;BME280;41676;44.610;44.078;2023-04-23T04:10:19;100579.81;;;13.20;75.43
55757;BME280;41676;44.610;44.078;2023-04-23T04:15:20;100577.75;;;13.30;74.57
55757;BME280;41676;44.610;44.078;2023-04-23T04:20:21;100594.41;;;13.32;73.98
55757;BME280;41676;44.610;44.078;2023-04-23T04:25:22;100596.97;;;13.26;74.58
55757;BME280;41676;44.610;44.078;2023-04-23T04:30:23;100535.44;;;12.81;73.51
55757;BME280;41676;44.610;44.078;2023-04-23T04:35:26;100572.38;;;13.07;73.04
55757;BME280;41676;44.610;44.078;2023-04-23T04:40:27;100595.94;;;13.27;72.03
55757;BME280;41676;44.610;44.078;2023-04-23T04:45:28;100609.59;;;13.32;71.23
55757;BME280;41676;44.610;44.078;2023-04-23T04:50:28;100626.53;;;13.39;71.70
55757;BME280;41676;44.610;44.078;2023-04-23T04:55:29;100558.84;;;12.94;72.28
55757;BME280;41676;44.610;44.078;2023-04-23T05:00:30;100635.63;;;13.30;71.45
55757;BME280;41676;44.610;44.078;2023-04-23T05:05:32;100647.22;;;13.37;72.29
55757;BME280;41676;44.610;44.078;2023-04-23T05:10:33;100581.47;;;12.98;73.00
55757;BME280;41676;44.610;44.078;2023-04-23T05:15:33;100517.91;;;12.64;72.99
55757;BME280;41676;44.610;44.078;2023-04-23T05:20:35;100563.66;;;12.98;72.20
55757;BME280;41676;44.610;44.078;2023-04-23T05:25:36;100641.81;;;13.45;71.86
55757;BME280;41676;44.610;44.078;2023-04-23T05:30:36;100607.91;;;13.31;70.74
55757;BME280;41676;44.610;44.078;2023-04-23T05:35:37;100634.13;;;13.50;69.73
55757;BME280;41676;44.610;44.078;2023-04-23T05:40:38;100635.34;;;13.62;69.18
55757;BME280;41676;44.610;44.078;2023-04-23T05:45:39;100656.13;;;13.67;68.72
55757;BME280;41676;44.610;44.078;2023-04-23T05:50:40;100670.47;;;13.89;69.99
55757;BME280;41676;44.610;44.078;2023-04-23T05:55:41;100652.78;;;13.73;69.26
55757;BME280;41676;44.610;44.078;2023-04-23T06:00:41;100621.44;;;13.52;68.06
55757;BME280;41676;44.610;44.078;2023-04-23T06:05:42;100609.38;;;13.56;67.87
55757;BME280;41676;44.610;44.078;2023-04-23T06:10:43;100679.78;;;14.08;67.26
55757;BME280;41676;44.610;44.078;2023-04-23T06:15:44;100674.09;;;14.11;66.46
55757;BME280;41676;44.610;44.078;2023-04-23T06:20:45;100653.19;;;14.14;66.27
55757;BME280;41676;44.610;44.078;2023-04-23T06:25:46;100676.34;;;14.52;66.34
55757;BME280;41676;44.610;44.078;2023-04-23T06:30:47;100656.59;;;14.38;65.54
55757;BME280;41676;44.610;44.078;2023-04-23T06:35:48;100663.03;;;14.44;65.32
55757;BME280;41676;44.610;44.078;2023-04-23T06:40:49;100677.81;;;14.54;65.03
55757;BME280;41676;44.610;44.078;2023-04-23T06:45:49;100658.63;;;14.36;65.07
55757;BME280;41676;44.610;44.078;2023-04-23T06:50:50;100673.34;;;14.47;64.90
55757;BME280;41676;44.610;44.078;2023-04-23T06:55:51;100598.19;;;14.05;65.31
55757;BME280;41676;44.610;44.078;2023-04-23T07:00:52;100600.03;;;14.05;65.17
55757;BME280;41676;44.610;44.078;2023-04-23T07:05:53;100681.69;;;14.67;64.35
55757;BME280;41676;44.610;44.078;2023-04-23T07:10:54;100608.75;;;14.43;63.78
55757;BME280;41676;44.610;44.078;2023-04-23T07:15:55;100593.00;;;14.63;63.46
55757;BME280;41676;44.610;44.078;2023-04-23T07:20:56;100678.72;;;15.34;63.36
55757;BME280;41676;44.610;44.078;2023-04-23T07:25:56;100667.78;;;15.29;62.99
55757;BME280;41676;44.610;44.078;2023-04-23T07:30:57;100667.56;;;15.52;62.50
55757;BME280;41676;44.610;44.078;2023-04-23T07:35:58;100646.72;;;15.69;62.02
55757;BME280;41676;44.610;44.078;2023-04-23T07:40:59;100647.75;;;15.68;62.28
55757;BME280;41676;44.610;44.078;2023-04-23T07:46:00;100506.03;;;14.89;62.25
55757;BME280;41676;44.610;44.078;2023-04-23T07:51:01;100659.72;;;16.00;61.73
55757;BME280;41676;44.610;44.078;2023-04-23T07:56:02;100643.59;;;15.93;61.77
55757;BME280;41676;44.610;44.078;2023-04-23T08:01:02;100650.50;;;16.09;62.67
55757;BME280;41676;44.610;44.078;2023-04-23T08:06:03;100654.13;;;16.30;61.26
55757;BME280;41676;44.610;44.078;2023-04-23T08:11:05;100647.13;;;16.29;60.62
55757;BME280;41676;44.610;44.078;2023-04-23T08:16:06;100648.09;;;16.56;60.89
55757;BME280;41676;44.610;44.078;2023-04-23T08:21:07;100654.25;;;16.56;59.53
55757;BME280;41676;44.610;44.078;2023-04-23T08:26:08;100653.34;;;16.36;59.92
55757;BME280;41676;44.610;44.078;2023-04-23T08:31:09;100646.31;;;16.28;59.87
55757;BME280;41676;44.610;44.078;2023-04-23T08:36:10;100649.88;;;16.07;60.23
55757;BME280;41676;44.610;44.078;2023-04-23T08:41:14;100646.94;;;15.95;60.18
55757;BME280;41676;44.610;44.078;2023-04-23T08:46:18;100640.69;;;15.88;60.86
55757;BME280;41676;44.610;44.078;2023-04-23T08:51:20;100638.25;;;15.93;60.89
55757;BME280;41676;44.610;44.078;2023-04-23T08:56:22;100616.38;;;15.90;60.57
55757;BME280;41676;44.610;44.078;2023-04-23T09:01:24;100638.56;;;16.47;60.38
55757;BME280;41676;44.610;44.078;2023-04-23T09:06:25;100624.59;;;16.58;59.43
55757;BME280;41676;44.610;44.078;2023-04-23T09:11:26;100626.88;;;16.74;58.74
55757;BME280;41676;44.610;44.078;2023-04-23T09:16:28;100577.22;;;16.78;58.68
55757;BME280;41676;44.610;44.078;2023-04-23T09:21:29;100600.41;;;17.32;57.78
55757;BME280;41676;44.610;44.078;2023-04-23T09:26:30;100603.09;;;17.46;57.76
55757;BME280;41676;44.610;44.078;2023-04-23T09:31:31;100465.94;;;16.74;57.29
55757;BME280;41676;44.610;44.078;2023-04-23T09:36:32;100583.25;;;17.87;56.43
55757;BME280;41676;44.610;44.078;2023-04-23T09:41:33;100586.78;;;17.81;55.41
55757;BME280;41676;44.610;44.078;2023-04-23T09:46:39;100577.19;;;18.11;55.67
55757;BME280;41676;44.610;44.078;2023-04-23T09:51:47;100575.47;;;18.23;55.54
55757;BME280;41676;44.610;44.078;2023-04-23T09:56:51;100581.16;;;17.89;55.19
55757;BME280;41676;44.610;44.078;2023-04-23T10:01:53;100558.84;;;17.88;56.59
55757;BME280;41676;44.610;44.078;2023-04-23T10:07:02;100578.38;;;18.29;56.40
55757;BME280;41676;44.610;44.078;2023-04-23T10:12:04;100573.75;;;18.42;56.02
55757;BME280;41676;44.610;44.078;2023-04-23T10:17:06;100502.41;;;17.88;55.33
55757;BME280;41676;44.610;44.078;2023-04-23T10:22:09;100480.09;;;17.81;55.13
55757;BME280;41676;44.610;44.078;2023-04-23T10:27:12;100498.28;;;17.72;57.07
55757;BME280;41676;44.610;44.078;2023-04-23T10:32:14;100577.81;;;18.13;57.65
55757;BME280;41676;44.610;44.078;2023-04-23T10:37:17;100561.44;;;18.15;56.66
55757;BME280;41676;44.610;44.078;2023-04-23T10:42:22;100571.03;;;17.91;54.83
55757;BME280;41676;44.610;44.078;2023-04-23T10:47:23;100500.16;;;17.58;55.71
55757;BME280;41676;44.610;44.078;2023-04-23T10:52:24;100504.13;;;17.43;55.71
55757;BME280;41676;44.610;44.078;2023-04-23T10:57:25;100559.50;;;17.50;56.33
55757;BME280;41676;44.610;44.078;2023-04-23T11:02:42;100526.88;;;17.14;55.25
55757;BME280;41676;44.610;44.078;2023-04-23T11:08:02;100579.31;;;17.16;57.42
55757;BME280;41676;44.610;44.078;2023-04-23T11:13:21;100545.25;;;17.03;58.46
55757;BME280;41676;44.610;44.078;2023-04-23T11:18:22;100566.09;;;16.95;57.31
55757;BME280;41676;44.610;44.078;2023-04-23T11:23:30;100556.78;;;16.84;58.61
55757;BME280;41676;44.610;44.078;2023-04-23T11:28:33;100571.91;;;17.11;57.35
55757;BME280;41676;44.610;44.078;2023-04-23T11:33:37;100564.06;;;17.37;57.20
55757;BME280;41676;44.610;44.078;2023-04-23T11:38:38;100528.94;;;17.18;57.12
55757;BME280;41676;44.610;44.078;2023-04-23T11:43:41;100515.75;;;17.23;56.87
55757;BME280;41676;44.610;44.078;2023-04-23T11:48:42;100532.03;;;17.28;57.48
55757;BME280;41676;44.610;44.078;2023-04-23T11:53:45;100526.84;;;17.60;57.29
55757;BME280;41676;44.610;44.078;2023-04-23T11:58:46;100459.31;;;17.37;56.37
55757;BME280;41676;44.610;44.078;2023-04-23T12:03:47;100530.53;;;17.79;56.54
55757;BME280;41676;44.610;44.078;2023-04-23T12:08:48;100511.09;;;17.77;56.87
55757;BME280;41676;44.610;44.078;2023-04-23T12:13:49;100533.63;;;17.83;56.15
55757;BME280;41676;44.610;44.078;2023-04-23T12:18:52;100522.06;;;17.75;54.93
55757;BME280;41676;44.610;44.078;2023-04-23T12:23:53;100494.81;;;17.65;56.08
55757;BME280;41676;44.610;44.078;2023-04-23T12:28:57;100535.47;;;17.89;56.14
55757;BME280;41676;44.610;44.078;2023-04-23T12:34:03;100542.31;;;17.85;56.32
55757;BME280;41676;44.610;44.078;2023-04-23T12:44:24;100522.25;;;17.87;57.08
55757;BME280;41676;44.610;44.078;2023-04-23T12:49:26;100523.09;;;17.81;56.59
55757;BME280;41676;44.610;44.078;2023-04-23T12:54:29;100523.53;;;17.71;56.18
55757;BME280;41676;44.610;44.078;2023-04-23T12:59:31;100537.53;;;17.73;56.19
55757;BME280;41676;44.610;44.078;2023-04-23T13:04:33;100551.41;;;17.77;56.09
55757;BME280;41676;44.610;44.078;2023-04-23T13:09:34;100413.75;;;16.90;56.52
55757;BME280;41676;44.610;44.078;2023-04-23T13:14:35;100546.28;;;17.62;56.95
55757;BME280;41676;44.610;44.078;2023-04-23T13:19:36;100487.22;;;17.36;57.94
55757;BME280;41676;44.610;44.078;2023-04-23T13:24:39;100548.72;;;17.77;57.96
55757;BME280;41676;44.610;44.078;2023-04-23T13:29:40;100471.72;;;17.31;58.29
55757;BME280;41676;44.610;44.078;2023-04-23T13:34:41;100552.66;;;17.61;57.76
55757;BME280;41676;44.610;44.078;2023-04-23T13:39:42;100450.91;;;17.00;57.54
55757;BME280;41676;44.610;44.078;2023-04-23T13:44:42;100548.75;;;17.44;57.76
55757;BME280;41676;44.610;44.078;2023-04-23T13:49:43;100531.00;;;17.43;58.13
55757;BME280;41676;44.610;44.078;2023-04-23T13:54:44;100466.19;;;16.93;58.33
55757;BME280;41676;44.610;44.078;2023-04-23T13:59:47;100471.75;;;16.78;58.70
55757;BME280;41676;44.610;44.078;2023-04-23T14:04:47;100558.66;;;17.10;59.08
55757;BME280;41676;44.610;44.078;2023-04-23T14:09:48;100505.53;;;16.52;59.52
55757;BME280;41676;44.610;44.078;2023-04-23T14:14:52;100537.53;;;16.60;59.74
55757;BME280;41676;44.610;44.078;2023-04-23T14:19:52;100559.41;;;16.64;60.05
55757;BME280;41676;44.610;44.078;2023-04-23T14:25:01;100553.63;;;16.67;60.32
55757;BME280;41676;44.610;44.078;2023-04-23T14:30:02;100549.50;;;16.71;60.28
55757;BME280;41676;44.610;44.078;2023-04-23T14:35:06;100545.78;;;16.65;60.34
55757;BME280;41676;44.610;44.078;2023-04-23T14:40:08;100566.00;;;16.68;60.71
55757;BME280;41676;44.610;44.078;2023-04-23T14:45:09;100564.75;;;16.64;61.17
55757;BME280;41676;44.610;44.078;2023-04-23T14:50:10;100464.91;;;15.94;61.58
55757;BME280;41676;44.610;44.078;2023-04-23T14:55:11;100478.53;;;15.92;61.84
55757;BME280;41676;44.610;44.078;2023-04-23T15:00:12;100480.72;;;15.82;62.50
55757;BME280;41676;44.610;44.078;2023-04-23T15:05:14;100549.56;;;16.23;63.33
55757;BME280;41676;44.610;44.078;2023-04-23T15:10:16;100529.88;;;16.03;63.74
55757;BME280;41676;44.610;44.078;2023-04-23T15:20:24;100544.97;;;16.04;64.22
55757;BME280;41676;44.610;44.078;2023-04-23T15:25:25;100397.56;;;15.14;64.69
55757;BME280;41676;44.610;44.078;2023-04-23T15:30:27;100534.81;;;15.99;64.98
55757;BME280;41676;44.610;44.078;2023-04-23T15:35:28;100543.53;;;16.08;65.03
55757;BME280;41676;44.610;44.078;2023-04-23T15:40:29;100462.28;;;15.59;65.26
55757;BME280;41676;44.610;44.078;2023-04-23T15:45:30;100470.50;;;15.58;65.58
55757;BME280;41676;44.610;44.078;2023-04-23T15:50:30;100527.56;;;15.86;66.14
55757;BME280;41676;44.610;44.078;2023-04-23T15:55:31;100546.53;;;15.91;66.35
55757;BME280;41676;44.610;44.078;2023-04-23T16:00:33;100521.69;;;15.69;65.78
55757;BME280;41676;44.610;44.078;2023-04-23T16:05:34;100475.53;;;15.39;65.82
55757;BME280;41676;44.610;44.078;2023-04-23T16:10:38;100546.44;;;15.78;66.27
55757;BME280;41676;44.610;44.078;2023-04-23T16:15:39;100547.66;;;15.75;66.19
55757;BME280;41676;44.610;44.078;2023-04-23T16:20:39;100536.66;;;15.64;66.05
55757;BME280;41676;44.610;44.078;2023-04-23T16:25:40;100544.78;;;15.70;66.15
55757;BME280;41676;44.610;44.078;2023-04-23T16:30:42;100528.19;;;15.60;66.30
55757;BME280;41676;44.610;44.078;2023-04-23T16:35:44;100409.28;;;14.85;67.28
55757;BME280;41676;44.610;44.078;2023-04-23T16:40:45;100539.13;;;15.65;67.65
55757;BME280;41676;44.610;44.078;2023-04-23T16:45:46;100561.38;;;15.66;68.65
55757;BME280;41676;44.610;44.078;2023-04-23T16:50:48;100557.59;;;15.53;69.62
55757;BME280;41676;44.610;44.078;2023-04-23T16:55:49;100575.69;;;15.51;69.49
55757;BME280;41676;44.610;44.078;2023-04-23T17:00:50;100574.06;;;15.50;69.54
55757;BME280;41676;44.610;44.078;2023-04-23T17:05:58;100579.41;;;15.50;71.26
55757;BME280;41676;44.610;44.078;2023-04-23T17:10:59;100580.63;;;15.48;70.81
55757;BME280;41676;44.610;44.078;2023-04-23T17:16:01;100564.38;;;15.28;71.30
55757;BME280;41676;44.610;44.078;2023-04-23T17:21:02;100578.84;;;15.34;71.69
55757;BME280;41676;44.610;44.078;2023-04-23T17:26:03;100513.16;;;14.81;72.08
55757;BME280;41676;44.610;44.078;2023-04-23T17:31:03;100515.53;;;14.70;72.90
55757;BME280;41676;44.610;44.078;2023-04-23T17:36:04;100545.38;;;14.95;72.81
55757;BME280;41676;44.610;44.078;2023-04-23T17:41:05;100430.50;;;14.22;72.48
55757;BME280;41676;44.610;44.078;2023-04-23T17:46:06;100552.97;;;14.91;72.26
55757;BME280;41676;44.610;44.078;2023-04-23T17:51:07;100561.53;;;14.87;72.25
55757;BME280;41676;44.610;44.078;2023-04-23T17:56:08;100574.78;;;14.95;72.50
55757;BME280;41676;44.610;44.078;2023-04-23T18:01:09;100572.00;;;14.81;73.21
55757;BME280;41676;44.610;44.078;2023-04-23T18:06:11;100566.31;;;14.70;73.35
55757;BME280;41676;44.610;44.078;2023-04-23T18:11:12;100563.59;;;14.63;73.63
55757;BME280;41676;44.610;44.078;2023-04-23T18:16:12;100562.22;;;14.52;73.97
55757;BME280;41676;44.610;44.078;2023-04-23T18:21:14;100554.53;;;14.49;74.00
55757;BME280;41676;44.610;44.078;2023-04-23T18:26:17;100556.41;;;14.49;73.78
55757;BME280;41676;44.610;44.078;2023-04-23T18:31:17;100470.09;;;13.97;74.19
55757;BME280;41676;44.610;44.078;2023-04-23T18:36:24;100530.47;;;14.28;75.12
55757;BME280;41676;44.610;44.078;2023-04-23T18:41:29;100455.75;;;13.68;75.10
55757;BME280;41676;44.610;44.078;2023-04-23T18:46:30;100527.25;;;14.03;75.63
55757;BME280;41676;44.610;44.078;2023-04-23T18:51:42;100520.19;;;13.80;77.21
55757;BME280;41676;44.610;44.078;2023-04-23T18:56:44;100497.16;;;13.35;76.85
55757;BME280;41676;44.610;44.078;2023-04-23T19:01:45;100519.59;;;13.26;77.70
55757;BME280;41676;44.610;44.078;2023-04-23T19:06:47;100497.25;;;13.03;78.00
55757;BME280;41676;44.610;44.078;2023-04-23T19:11:48;100514.72;;;13.06;78.20
55757;BME280;41676;44.610;44.078;2023-04-23T19:16:48;100502.47;;;12.97;77.84
55757;BME280;41676;44.610;44.078;2023-04-23T19:21:50;100521.44;;;13.02;76.44
55757;BME280;41676;44.610;44.078;2023-04-23T19:26:51;100465.34;;;12.72;76.03
55757;BME280;41676;44.610;44.078;2023-04-23T19:31:52;100499.44;;;13.00;74.75
55757;BME280;41676;44.610;44.078;2023-04-23T19:36:52;100485.81;;;12.95;74.20
55757;BME280;41676;44.610;44.078;2023-04-23T19:41:53;100488.72;;;13.08;74.10
55757;BME280;41676;44.610;44.078;2023-04-23T19:46:54;100499.56;;;13.07;74.31
55757;BME280;41676;44.610;44.078;2023-04-23T19:51:56;100507.38;;;13.08;74.50
55757;BME280;41676;44.610;44.078;2023-04-23T19:56:57;100462.84;;;12.94;74.72
55757;BME280;41676;44.610;44.078;2023-04-23T20:01:58;100402.47;;;12.63;74.40
55757;BME280;41676;44.610;44.078;2023-04-23T20:06:59;100467.16;;;12.95;75.12
55757;BME280;41676;44.610;44.078;2023-04-23T20:12:01;100467.13;;;12.80;75.49
55757;BME280;41676;44.610;44.078;2023-04-23T20:17:02;100465.09;;;12.82;75.81
55757;BME280;41676;44.610;44.078;2023-04-23T20:22:03;100378.22;;;12.35;76.17
55757;BME280;41676;44.610;44.078;2023-04-23T20:27:03;100466.41;;;12.86;76.09
55757;BME280;41676;44.610;44.078;2023-04-23T20:32:06;100453.63;;;12.82;76.75
55757;BME280;41676;44.610;44.078;2023-04-23T20:37:07;100413.84;;;12.57;76.92
55757;BME280;41676;44.610;44.078;2023-04-23T20:42:09;100447.03;;;12.92;77.43
55757;BME280;41676;44.610;44.078;2023-04-23T20:47:12;100442.91;;;13.05;77.58
55757;BME280;41676;44.610;44.078;2023-04-23T20:52:13;100433.81;;;13.14;77.16
55757;BME280;41676;44.610;44.078;2023-04-23T20:57:14;100387.63;;;12.84;77.47
55757;BME280;41676;44.610;44.078;2023-04-23T21:02:15;100432.25;;;13.05;77.86
55757;BME280;41676;44.610;44.078;2023-04-23T21:07:16;100309.31;;;12.32;78.15
55757;BME280;41676;44.610;44.078;2023-04-23T21:12:17;100403.81;;;12.97;78.35
55757;BME280;41676;44.610;44.078;2023-04-23T21:17:18;100425.25;;;13.18;78.23
55757;BME280;41676;44.610;44.078;2023-04-23T21:22:19;100412.28;;;13.15;78.51
55757;BME280;41676;44.610;44.078;2023-04-23T21:27:20;100324.00;;;12.66;78.17
55757;BME280;41676;44.610;44.078;2023-04-23T21:32:21;100431.38;;;13.27;78.42
55757;BME280;41676;44.610;44.078;2023-04-23T21:37:21;100420.22;;;13.23;78.94
55757;BME280;41676;44.610;44.078;2023-04-23T21:42:22;100416.44;;;13.18;78.89
55757;BME280;41676;44.610;44.078;2023-04-23T21:47:23;100414.88;;;13.23;78.82
55757;BME280;41676;44.610;44.078;2023-04-23T21:52:24;100350.94;;;12.86;78.82
55757;BME280;41676;44.610;44.078;2023-04-23T21:57:25;100413.41;;;13.21;79.10
55757;BME280;41676;44.610;44.078;2023-04-23T22:02:26;100408.34;;;13.11;79.09
55757;BME280;41676;44.610;44.078;2023-04-23T22:07:27;100388.72;;;13.04;79.49
55757;BME280;41676;44.610;44.078;2023-04-23T22:12:28;100405.31;;;13.14;79.75
55757;BME280;41676;44.610;44.078;2023-04-23T22:17:29;100365.94;;;12.87;80.09
55757;BME280;41676;44.610;44.078;2023-04-23T22:22:33;100393.44;;;13.02;80.48
55757;BME280;41676;44.610;44.078;2023-04-23T22:27:37;100412.50;;;13.14;80.66
55757;BME280;41676;44.610;44.078;2023-04-23T22:32:38;100415.31;;;13.12;80.73
55757;BME280;41676;44.610;44.078;2023-04-23T22:37:40;100398.50;;;13.12;80.47
55757;BME280;41676;44.610;44.078;2023-04-23T22:42:41;100318.00;;;12.64;81.28
55757;BME280;41676;44.610;44.078;2023-04-23T22:47:42;100363.53;;;12.92;81.84
55757;BME280;41676;44.610;44.078;2023-04-23T22:52:42;100374.19;;;12.92;82.23
55757;BME280;41676;44.610;44.078;2023-04-23T22:57:43;100318.00;;;12.64;82.17
55757;BME280;41676;44.610;44.078;2023-04-23T23:02:44;100326.94;;;12.71;82.35
55757;BME280;41676;44.610;44.078;2023-04-23T23:07:45;100318.41;;;12.75;82.38
55757;BME280;41676;44.610;44.078;2023-04-23T23:12:46;100374.22;;;13.21;82.38
55757;BME280;41676;44.610;44.078;2023-04-23T23:17:47;100375.88;;;13.22;82.36
55757;BME280;41676;44.610;44.078;2023-04-23T23:22:47;100389.50;;;13.28;82.65
55757;BME280;41676;44.610;44.078;2023-04-23T23:27:48;100375.19;;;13.29;82.85
55757;BME280;41676;44.610;44.078;2023-04-23T23:32:49;100291.19;;;12.80;82.76
55757;BME280;41676;44.610;44.078;2023-04-23T23:37:50;100359.22;;;13.20;83.41
55757;BME280;41676;44.610;44.078;2023-04-23T23:42:51;100355.28;;;13.16;83.49
55757;BME280;41676;44.610;44.078;2023-04-23T23:47:51;100362.84;;;13.28;83.78
55757;BME280;41676;44.610;44.078;2023-04-23T23:52:53;100270.13;;;12.70;83.85
55757;BME280;41676;44.610;44.078;2023-04-23T23:57:54;100327.16;;;12.99;84.27
